Pagrindinis puslapis
METAR-TAF:

METAR-TAF

Oro uostai :

Bankokas, Tailandas

platuma: 13-54-45N, ilguma: 100-36-24E, Aukštis: 4 m

Dabartinis oras

Ataskaita buvo paskelbta 16 minutes, ne 18:30 UTC
Ramus vėjas
Temperatūra 26°C
Drėgmė 61%
Slėgis 1012 hPa
Matomumas 10 km arba daugiau
Mažai debesys ne aukštis 3000 ft

METAR: VTBD 291830Z 00000KT 9999 FEW030 26/18 Q1012 NOSIG

Laikas: 01:46 (18:46 UTC)

Prognozė

Ataskaita buvo paskelbta 1 valandą ir 46 minutes, ne 17:00 UTC
Prognozė galioja nuo 29 metu 18 UTC su 30 metu 24 UTC
Vėjas 5 kt iš Pietų/Pietvakarių
Matomumas 10 km arba daugiau
Mažai debesys ne aukštis 2000 ft
Tapsmas
nuo 29 metu 21 UTC su 29 metu 23 UTC
Vėjas 5 kt iš Pietryčių
Tapsmas
nuo 30 metu 10 UTC su 30 metu 12 UTC
Vėjas 5 kt iš Vakarų/Pietvakarių

TAF: VTBD 291700Z 2918/3024 21005KT 9999 FEW020 BECMG 2921/2923 14005KT BECMG 3010/3012 24005KT

Orai ataskaitas ir orų prognozės (METAR, TAF).

turimą stotys yra geltonos ir raudonos taškus žemėlapyje.

Perkelti pele per norėdami pamatyti stoties vardą.

Tada spustelėkite, norėdami matyti oro stebėjimo ir prognozės.

Norėdami pakeisti žemėlapį: spustelėkite ant žalios mygtukų su juodo kryžiaus žemyn,; žalią mygtuką su brūkšneliu, jei norite nutolinti; arba žalių rodyklių gretimoms žemėlapius.


METAR-TAF: